createdAt,value
2023-03-16T00:02:08.322Z,10.40
2023-03-16T00:04:38.177Z,10.42
2023-03-16T00:07:06.240Z,10.49
2023-03-16T00:09:34.750Z,10.50
2023-03-16T00:12:05.055Z,10.49
2023-03-16T00:14:32.841Z,10.50
2023-03-16T00:16:59.944Z,10.54
2023-03-16T00:19:26.868Z,10.52
2023-03-16T00:21:53.869Z,10.53
2023-03-16T00:24:20.891Z,10.52
2023-03-16T00:26:49.291Z,10.50
2023-03-16T00:29:16.253Z,10.56
2023-03-16T00:31:44.250Z,10.61
2023-03-16T00:34:11.437Z,10.63
2023-03-16T00:36:38.515Z,10.68
2023-03-16T00:39:05.950Z,10.70
2023-03-16T00:41:37.838Z,10.69
2023-03-16T00:44:09.414Z,10.69
2023-03-16T00:46:36.469Z,10.72
2023-03-16T00:49:04.125Z,10.70
2023-03-16T00:51:33.931Z,10.68
2023-03-16T00:54:00.915Z,10.62
2023-03-16T00:56:27.845Z,10.60
2023-03-16T00:58:57.881Z,10.61
2023-03-16T01:01:27.520Z,10.56
2023-03-16T01:03:54.939Z,10.54
2023-03-16T01:06:22.222Z,10.56
2023-03-16T01:08:49.245Z,10.58
2023-03-16T01:11:18.444Z,10.60
2023-03-16T01:13:47.402Z,10.60
2023-03-16T01:16:14.965Z,10.57
2023-03-16T01:18:43.306Z,10.57
2023-03-16T01:21:13.829Z,10.54
2023-03-16T01:23:41.384Z,10.55
2023-03-16T01:26:08.438Z,10.57
2023-03-16T01:28:35.999Z,10.61
2023-03-16T01:31:05.719Z,10.68
2023-03-16T01:33:34.325Z,10.68
2023-03-16T01:36:05.673Z,10.71
2023-03-16T01:38:40.935Z,10.74
2023-03-16T01:41:09.010Z,10.76
2023-03-16T01:43:38.022Z,10.78
2023-03-16T01:46:18.934Z,10.80
2023-03-16T01:49:08.248Z,10.77
2023-03-16T01:51:44.138Z,10.75
2023-03-16T01:54:19.125Z,10.66
2023-03-16T01:56:52.056Z,10.50
2023-03-16T01:59:23.385Z,10.34
2023-03-16T02:01:52.052Z,10.27
2023-03-16T02:04:32.398Z,10.20
2023-03-16T02:07:05.255Z,10.13
2023-03-16T02:09:34.567Z,10.05
2023-03-16T02:12:01.683Z,9.99
2023-03-16T02:14:30.063Z,9.94
2023-03-16T02:16:57.343Z,9.85
2023-03-16T02:19:35.126Z,9.80
2023-03-16T02:22:07.175Z,9.73
2023-03-16T02:24:35.004Z,9.62
2023-03-16T02:27:05.495Z,9.58
2023-03-16T02:30:01.134Z,9.50
2023-03-16T02:32:33.538Z,9.46
2023-03-16T02:35:03.051Z,9.40
2023-03-16T02:37:30.281Z,9.36
2023-03-16T02:39:57.231Z,9.37
2023-03-16T02:42:26.431Z,9.35
2023-03-16T02:45:00.385Z,9.36
2023-03-16T02:47:39.933Z,9.36
2023-03-16T02:50:09.006Z,9.37
2023-03-16T02:52:37.738Z,9.32
2023-03-16T02:55:06.164Z,9.25
2023-03-16T02:57:33.493Z,9.23
2023-03-16T03:00:17.218Z,9.25
2023-03-16T03:02:46.266Z,9.24
2023-03-16T03:05:13.567Z,9.26
2023-03-16T03:07:40.791Z,9.27
2023-03-16T03:10:09.353Z,9.20
2023-03-16T03:12:36.404Z,9.19
2023-03-16T03:15:09.538Z,9.23
2023-03-16T03:17:47.448Z,9.26
2023-03-16T03:20:16.936Z,9.30
2023-03-16T03:22:45.308Z,9.36
2023-03-16T03:25:14.222Z,9.39
2023-03-16T03:27:42.743Z,9.38
2023-03-16T03:30:16.818Z,9.38
2023-03-16T03:32:44.324Z,9.40
2023-03-16T03:35:12.915Z,9.38
2023-03-16T03:37:41.070Z,9.36
2023-03-16T03:40:12.119Z,9.35
2023-03-16T03:42:41.345Z,9.38
2023-03-16T03:45:12.662Z,9.29
2023-03-16T03:47:43.195Z,9.20
2023-03-16T03:50:14.348Z,9.07
2023-03-16T03:53:04.513Z,9.08
2023-03-16T03:55:37.531Z,9.00
2023-03-16T03:58:04.532Z,8.98
2023-03-16T04:00:31.610Z,8.96
2023-03-16T04:03:00.260Z,8.94
2023-03-16T04:05:34.665Z,8.98
2023-03-16T04:08:01.779Z,8.98
2023-03-16T04:10:30.536Z,8.97
2023-03-16T04:12:59.802Z,8.97
2023-03-16T04:15:32.990Z,8.97
2023-03-16T04:18:13.036Z,9.00
2023-03-16T04:20:41.271Z,8.97
2023-03-16T04:23:09.190Z,8.97
2023-03-16T04:25:38.679Z,9.00
2023-03-16T04:28:06.649Z,9.04
2023-03-16T04:30:35.624Z,9.02
2023-03-16T04:33:14.941Z,9.04
2023-03-16T04:35:42.603Z,9.01
2023-03-16T04:38:10.748Z,9.01
2023-03-16T04:40:45.218Z,8.99
2023-03-16T04:43:17.343Z,8.95
2023-03-16T04:45:45.132Z,8.92
2023-03-16T04:48:13.573Z,8.83
2023-03-16T04:50:40.973Z,8.79
2023-03-16T04:53:08.214Z,8.81
2023-03-16T04:55:35.476Z,8.89
2023-03-16T04:58:03.324Z,8.88
2023-03-16T05:00:34.118Z,8.91
2023-03-16T05:03:14.564Z,8.91
2023-03-16T05:05:42.827Z,8.89
2023-03-16T05:08:12.257Z,8.86
2023-03-16T05:10:41.640Z,8.82
2023-03-16T05:13:09.050Z,8.76
2023-03-16T05:15:39.903Z,8.72
2023-03-16T05:18:25.880Z,8.67
2023-03-16T05:20:56.913Z,8.64
2023-03-16T05:23:28.603Z,8.65
2023-03-16T05:26:01.042Z,8.65
2023-03-16T05:28:31.128Z,8.61
2023-03-16T05:31:03.875Z,8.59
2023-03-16T05:33:38.828Z,8.55
2023-03-16T05:36:09.988Z,8.54
2023-03-16T05:38:39.333Z,8.57
2023-03-16T05:41:09.515Z,8.61
2023-03-16T05:44:04.499Z,8.65
2023-03-16T05:46:46.609Z,8.62
2023-03-16T05:49:16.103Z,8.61
2023-03-16T05:51:44.421Z,8.53
2023-03-16T05:54:12.155Z,8.41
2023-03-16T05:56:44.615Z,8.33
2023-03-16T05:59:11.751Z,8.32
2023-03-16T06:01:40.151Z,8.25
2023-03-16T06:04:07.771Z,8.22
2023-03-16T06:06:40.559Z,8.17
2023-03-16T06:09:15.235Z,8.11
2023-03-16T06:11:44.188Z,8.04
2023-03-16T06:14:11.324Z,7.96
2023-03-16T06:16:38.358Z,7.94
2023-03-16T06:19:05.499Z,7.87
2023-03-16T06:21:33.540Z,7.81
2023-03-16T06:24:09.329Z,7.75
2023-03-16T06:26:36.724Z,7.69
2023-03-16T06:29:05.883Z,7.66
2023-03-16T06:31:35.194Z,7.61
2023-03-16T06:34:03.120Z,7.59
2023-03-16T06:36:30.806Z,7.57
2023-03-16T06:39:00.236Z,7.47
2023-03-16T06:41:47.881Z,7.45
2023-03-16T06:44:16.812Z,7.39
2023-03-16T06:46:54.198Z,7.42
2023-03-16T06:49:21.328Z,7.40
2023-03-16T06:51:48.597Z,7.38
2023-03-16T06:54:15.725Z,7.31
2023-03-16T06:56:45.854Z,7.31
2023-03-16T06:59:14.629Z,7.34
2023-03-16T07:01:42.404Z,7.31
2023-03-16T07:04:09.427Z,7.34
2023-03-16T07:06:37.096Z,7.34
2023-03-16T07:09:05.082Z,7.27
2023-03-16T07:11:32.788Z,7.18
2023-03-16T07:14:00.139Z,7.12
2023-03-16T07:16:29.776Z,7.08
2023-03-16T07:18:59.456Z,7.06
2023-03-16T07:21:26.424Z,7.01
2023-03-16T07:23:55.776Z,6.99
2023-03-16T07:26:26.031Z,7.03
2023-03-16T07:28:59.693Z,6.95
2023-03-16T07:31:26.803Z,6.92
2023-03-16T07:33:57.534Z,6.93
2023-03-16T07:36:39.263Z,6.96
2023-03-16T07:39:06.366Z,6.94
2023-03-16T07:41:34.990Z,6.94
2023-03-16T07:44:28.206Z,7.00
2023-03-16T07:46:55.867Z,7.02
2023-03-16T07:49:27.888Z,7.06
2023-03-16T07:51:55.930Z,7.10
2023-03-16T07:54:28.560Z,7.10
2023-03-16T07:56:55.601Z,7.06
2023-03-16T07:59:31.536Z,6.98
2023-03-16T08:01:58.883Z,6.93
2023-03-16T08:04:27.362Z,6.91
2023-03-16T08:07:02.929Z,6.95
2023-03-16T08:09:43.984Z,6.97
2023-03-16T08:12:15.259Z,7.01
2023-03-16T08:14:42.261Z,6.99
2023-03-16T08:17:23.674Z,7.00
2023-03-16T08:19:52.882Z,6.99
2023-03-16T08:22:21.106Z,7.01
2023-03-16T08:24:49.095Z,7.03
2023-03-16T08:27:19.970Z,6.97
2023-03-16T08:29:53.319Z,6.99
2023-03-16T08:32:22.804Z,6.97
2023-03-16T08:34:50.183Z,6.93
2023-03-16T08:37:19.578Z,6.85
2023-03-16T08:39:47.006Z,6.81
2023-03-16T08:42:16.828Z,6.74
2023-03-16T08:44:48.074Z,6.71
2023-03-16T08:47:15.216Z,6.74
2023-03-16T08:49:44.821Z,6.71
2023-03-16T08:52:15.924Z,6.72
2023-03-16T08:54:59.858Z,6.71
2023-03-16T08:57:29.222Z,6.67
2023-03-16T08:59:56.137Z,6.68
2023-03-16T09:02:23.091Z,6.64
2023-03-16T09:04:50.533Z,6.65
2023-03-16T09:07:18.749Z,6.63
2023-03-16T09:09:47.153Z,6.64
2023-03-16T09:12:14.461Z,6.71
2023-03-16T09:14:41.379Z,6.75
2023-03-16T09:17:08.384Z,6.83
2023-03-16T09:19:50.612Z,6.79
2023-03-16T09:22:19.797Z,6.76
2023-03-16T09:24:49.672Z,6.71
2023-03-16T09:27:17.738Z,6.65
2023-03-16T09:29:45.522Z,6.63
2023-03-16T09:32:13.072Z,6.59
2023-03-16T09:34:40.258Z,6.60
2023-03-16T09:37:07.591Z,6.57
2023-03-16T09:39:34.494Z,6.57
2023-03-16T09:42:10.167Z,6.55
2023-03-16T09:44:46.847Z,6.49
2023-03-16T09:47:16.728Z,6.50
2023-03-16T09:49:47.626Z,6.53
2023-03-16T09:52:27.241Z,6.55
2023-03-16T09:54:59.799Z,6.55
2023-03-16T09:57:31.396Z,6.58
2023-03-16T10:00:03.127Z,6.50
2023-03-16T10:02:52.228Z,6.55
2023-03-16T10:05:22.957Z,6.53
2023-03-16T10:07:57.784Z,6.58
2023-03-16T10:10:38.879Z,6.66
2023-03-16T10:13:17.364Z,6.65
2023-03-16T10:15:45.986Z,6.63
2023-03-16T10:18:17.633Z,6.64
2023-03-16T10:20:46.678Z,6.72
2023-03-16T10:23:17.927Z,6.76
2023-03-16T10:25:47.877Z,6.79
2023-03-16T10:28:19.062Z,6.84
2023-03-16T10:30:47.941Z,6.90
2023-03-16T10:33:21.839Z,7.00
2023-03-16T10:35:54.167Z,7.00
2023-03-16T10:38:30.760Z,7.09
2023-03-16T10:41:00.890Z,7.06
2023-03-16T10:43:30.003Z,7.04
2023-03-16T10:46:02.213Z,7.03
2023-03-16T10:48:34.079Z,6.95
2023-03-16T10:51:05.370Z,6.99
2023-03-16T10:53:36.704Z,7.03
2023-03-16T10:56:12.469Z,7.05
2023-03-16T10:58:42.687Z,7.06
2023-03-16T11:01:18.864Z,7.05
2023-03-16T11:03:51.365Z,7.05
2023-03-16T11:06:22.895Z,7.07
2023-03-16T11:08:52.307Z,7.08
2023-03-16T11:11:27.324Z,7.01
2023-03-16T11:13:59.876Z,7.03
2023-03-16T11:16:31.761Z,7.00
2023-03-16T11:19:04.777Z,6.95
2023-03-16T11:21:41.195Z,6.93
2023-03-16T11:24:17.248Z,6.87
2023-03-16T11:26:45.498Z,6.85
2023-03-16T11:29:20.293Z,6.84
2023-03-16T11:31:52.230Z,6.84
2023-03-16T11:34:29.042Z,6.83
2023-03-16T11:36:57.677Z,6.86
2023-03-16T11:39:32.833Z,6.84
2023-03-16T11:42:17.547Z,6.82
2023-03-16T11:44:53.046Z,6.69
2023-03-16T11:47:50.911Z,6.67
2023-03-16T11:50:22.607Z,6.73
2023-03-16T11:52:57.392Z,6.72
2023-03-16T11:55:32.703Z,6.74
2023-03-16T11:58:03.844Z,6.73
2023-03-16T12:00:40.427Z,6.75
2023-03-16T12:03:36.675Z,6.72
2023-03-16T12:06:23.341Z,6.76
2023-03-16T12:09:07.956Z,6.86
2023-03-16T12:11:42.003Z,6.95
2023-03-16T12:14:17.113Z,6.99
2023-03-16T12:16:54.844Z,7.02
2023-03-16T12:19:24.890Z,7.06
2023-03-16T12:22:01.316Z,7.06
2023-03-16T12:24:34.497Z,7.19
2023-03-16T12:27:02.674Z,7.21
2023-03-16T12:29:36.195Z,7.16
2023-03-16T12:32:11.800Z,7.23
2023-03-16T12:34:43.861Z,7.18
2023-03-16T12:37:22.670Z,7.16
2023-03-16T12:40:07.939Z,7.15
2023-03-16T12:43:16.720Z,7.12
2023-03-16T12:45:49.595Z,7.13
2023-03-16T12:48:27.379Z,7.16
2023-03-16T12:50:57.826Z,7.19
2023-03-16T12:53:46.765Z,7.23
2023-03-16T12:56:17.627Z,7.26
2023-03-16T12:58:47.161Z,7.23
2023-03-16T13:01:16.865Z,7.25
2023-03-16T13:03:48.116Z,7.20
2023-03-16T13:06:24.156Z,7.17
2023-03-16T13:08:57.817Z,7.18
2023-03-16T13:11:25.395Z,7.20
2023-03-16T13:14:05.842Z,7.24
2023-03-16T13:16:36.369Z,7.28
2023-03-16T13:19:25.302Z,7.19
2023-03-16T13:22:04.373Z,7.11
2023-03-16T13:24:53.074Z,7.17
2023-03-16T13:27:27.376Z,7.09
2023-03-16T13:29:59.474Z,7.10
2023-03-16T13:32:32.886Z,7.12
2023-03-16T13:35:05.346Z,7.22
2023-03-16T13:37:32.332Z,7.26
2023-03-16T13:40:01.686Z,7.24
2023-03-16T13:42:31.516Z,7.22
2023-03-16T13:45:03.917Z,7.27
2023-03-16T13:47:31.596Z,7.28
2023-03-16T13:50:00.147Z,7.28
2023-03-16T13:52:30.528Z,7.25
2023-03-16T13:54:59.431Z,7.30
2023-03-16T13:57:29.635Z,7.31
2023-03-16T14:00:05.971Z,7.33
2023-03-16T14:02:41.632Z,7.37
2023-03-16T14:05:11.671Z,7.45
2023-03-16T14:07:39.967Z,7.52
2023-03-16T14:10:09.472Z,7.52
2023-03-16T14:12:37.838Z,7.48
2023-03-16T14:15:07.228Z,7.46
2023-03-16T14:17:34.289Z,7.47
2023-03-16T14:20:04.061Z,7.48
2023-03-16T14:22:34.571Z,7.48
2023-03-16T14:25:05.659Z,7.45
2023-03-16T14:27:43.955Z,7.31
2023-03-16T14:30:18.369Z,7.31
2023-03-16T14:32:56.666Z,7.28
2023-03-16T14:35:27.806Z,7.24
2023-03-16T14:37:56.663Z,7.20
2023-03-16T14:40:28.861Z,7.23
2023-03-16T14:42:58.692Z,7.22
2023-03-16T14:45:31.428Z,7.19
2023-03-16T14:48:03.461Z,7.21
2023-03-16T14:50:32.579Z,7.19
2023-03-16T14:53:00.440Z,7.17
2023-03-16T14:55:29.008Z,7.23
2023-03-16T14:57:56.285Z,7.23
2023-03-16T15:00:25.484Z,7.26
2023-03-16T15:03:00.232Z,7.24
2023-03-16T15:05:35.199Z,7.17
2023-03-16T15:08:05.476Z,7.13
2023-03-16T15:10:35.337Z,7.18
2023-03-16T15:13:13.141Z,7.11
2023-03-16T15:15:44.018Z,7.09
2023-03-16T15:18:11.164Z,7.14
2023-03-16T15:20:43.955Z,7.19
2023-03-16T15:23:14.055Z,7.23
2023-03-16T15:25:43.827Z,7.29
2023-03-16T15:28:14.476Z,7.35
2023-03-16T15:30:42.470Z,7.40
2023-03-16T15:33:09.604Z,7.45
2023-03-16T15:35:37.137Z,7.51
2023-03-16T15:38:08.780Z,7.48
2023-03-16T15:40:44.292Z,7.40
2023-03-16T15:43:12.681Z,7.37
2023-03-16T15:45:39.689Z,7.43
2023-03-16T15:48:08.169Z,7.46
2023-03-16T15:50:39.002Z,7.51
2023-03-16T15:53:10.151Z,7.52
2023-03-16T15:55:40.747Z,7.55
2023-03-16T15:58:17.198Z,7.57
2023-03-16T16:00:44.400Z,7.57
2023-03-16T16:03:12.262Z,7.60
2023-03-16T16:05:39.484Z,7.61
2023-03-16T16:08:06.799Z,7.65
2023-03-16T16:10:34.615Z,7.68
2023-03-16T16:13:02.215Z,7.72
2023-03-16T16:15:34.059Z,7.76
2023-03-16T16:18:20.264Z,7.76
2023-03-16T16:20:48.389Z,7.75
2023-03-16T16:23:15.438Z,7.76
2023-03-16T16:25:44.995Z,7.77
2023-03-16T16:28:15.885Z,7.78
2023-03-16T16:30:44.592Z,7.80
2023-03-16T16:33:25.462Z,7.77
2023-03-16T16:35:53.797Z,7.74
2023-03-16T16:38:21.984Z,7.73
2023-03-16T16:40:49.929Z,7.76
2023-03-16T16:43:32.212Z,7.78
2023-03-16T16:46:01.268Z,7.80
2023-03-16T16:48:33.733Z,7.76
2023-03-16T16:51:01.292Z,7.75
2023-03-16T16:53:28.781Z,7.73
2023-03-16T16:55:57.001Z,7.73
2023-03-16T16:58:25.128Z,7.73
2023-03-16T17:00:56.741Z,7.69
2023-03-16T17:03:27.498Z,7.67
2023-03-16T17:05:58.414Z,7.65
2023-03-16T17:08:25.800Z,7.66
2023-03-16T17:10:53.885Z,7.68
2023-03-16T17:13:26.837Z,7.72
2023-03-16T17:15:54.961Z,7.72
2023-03-16T17:18:22.220Z,7.73
2023-03-16T17:20:50.774Z,7.74
2023-03-16T17:23:29.702Z,7.74
2023-03-16T17:25:59.289Z,7.70
2023-03-16T17:28:35.847Z,7.68
2023-03-16T17:31:03.050Z,7.67
2023-03-16T17:33:31.110Z,7.68
2023-03-16T17:36:02.063Z,7.66
2023-03-16T17:38:29.108Z,7.66
2023-03-16T17:40:56.455Z,7.65
2023-03-16T17:43:23.960Z,7.63
2023-03-16T17:45:52.417Z,7.63
2023-03-16T17:48:21.130Z,7.62
2023-03-16T17:50:48.981Z,7.63
2023-03-16T17:53:18.881Z,7.66
2023-03-16T17:55:46.826Z,7.67
2023-03-16T17:58:24.414Z,7.67
2023-03-16T18:00:52.833Z,7.63
2023-03-16T18:03:21.814Z,7.62
2023-03-16T18:05:48.837Z,7.63
2023-03-16T18:08:20.575Z,7.62
2023-03-16T18:10:50.955Z,7.61
2023-03-16T18:13:22.686Z,7.58
2023-03-16T18:15:50.658Z,7.58
2023-03-16T18:18:21.346Z,7.56
2023-03-16T18:20:50.753Z,7.55
2023-03-16T18:23:23.049Z,7.51
2023-03-16T18:25:52.918Z,7.48
2023-03-16T18:28:20.585Z,7.48
2023-03-16T18:30:51.976Z,7.48
2023-03-16T18:33:25.188Z,7.49
2023-03-16T18:35:54.030Z,7.47
2023-03-16T18:38:29.805Z,7.42
2023-03-16T18:40:56.984Z,7.42
2023-03-16T18:43:26.732Z,7.42
2023-03-16T18:45:55.039Z,7.42
2023-03-16T18:48:27.359Z,7.42
2023-03-16T18:50:54.322Z,7.42
2023-03-16T18:53:22.476Z,7.42
2023-03-16T18:55:51.935Z,7.43
2023-03-16T18:58:22.724Z,7.43
2023-03-16T19:00:53.778Z,7.43
2023-03-16T19:03:26.407Z,7.40
2023-03-16T19:05:56.230Z,7.37
2023-03-16T19:08:23.929Z,7.37
2023-03-16T19:10:56.368Z,7.36
2023-03-16T19:13:26.124Z,7.31
2023-03-16T19:15:54.787Z,7.28
2023-03-16T19:18:22.931Z,7.25
2023-03-16T19:20:51.107Z,7.27
2023-03-16T19:23:23.015Z,7.25
2023-03-16T19:25:54.353Z,7.21
2023-03-16T19:28:28.038Z,7.13
2023-03-16T19:30:55.569Z,7.10
2023-03-16T19:33:25.859Z,7.10
2023-03-16T19:35:53.974Z,7.10
2023-03-16T19:38:22.297Z,7.10
2023-03-16T19:40:52.963Z,7.10
2023-03-16T19:43:22.023Z,7.11
2023-03-16T19:45:49.295Z,7.11
2023-03-16T19:48:20.991Z,7.06
2023-03-16T19:50:49.183Z,7.04
2023-03-16T19:53:18.070Z,7.07
2023-03-16T19:55:47.289Z,7.09
2023-03-16T19:58:30.243Z,7.09
2023-03-16T20:00:58.111Z,7.11
2023-03-16T20:03:25.647Z,7.12
2023-03-16T20:05:52.546Z,7.15
2023-03-16T20:08:22.005Z,7.16
2023-03-16T20:10:49.714Z,7.15
2023-03-16T20:13:17.755Z,7.13
2023-03-16T20:15:47.486Z,7.15
2023-03-16T20:18:16.174Z,7.17
2023-03-16T20:20:44.138Z,7.18
2023-03-16T20:23:17.675Z,7.18
2023-03-16T20:25:45.092Z,7.19
2023-03-16T20:28:18.497Z,7.18
2023-03-16T20:30:47.597Z,7.19
2023-03-16T20:33:20.164Z,7.19
2023-03-16T20:35:49.549Z,7.20
2023-03-16T20:38:17.117Z,7.17
2023-03-16T20:40:46.579Z,7.07
2023-03-16T20:43:23.819Z,7.04
2023-03-16T20:45:53.552Z,6.98
2023-03-16T20:48:21.197Z,6.98
2023-03-16T20:50:48.365Z,6.99
2023-03-16T20:53:15.511Z,6.95
2023-03-16T20:55:43.128Z,6.92
2023-03-16T20:58:21.668Z,6.86
2023-03-16T21:00:52.548Z,6.79
2023-03-16T21:03:23.130Z,6.67
2023-03-16T21:05:50.862Z,6.61
2023-03-16T21:08:18.584Z,6.56
2023-03-16T21:10:48.243Z,6.57
2023-03-16T21:13:19.027Z,6.59
2023-03-16T21:15:46.962Z,6.55
2023-03-16T21:18:18.406Z,6.53
2023-03-16T21:20:48.252Z,6.53
2023-03-16T21:23:18.178Z,6.50
2023-03-16T21:25:48.296Z,6.48
2023-03-16T21:28:16.454Z,6.45
2023-03-16T21:30:45.984Z,6.41
2023-03-16T21:33:24.625Z,6.42
2023-03-16T21:35:53.016Z,6.45
2023-03-16T21:38:21.060Z,6.46
2023-03-16T21:40:48.669Z,6.45
2023-03-16T21:43:16.115Z,6.43
2023-03-16T21:45:43.846Z,6.42
2023-03-16T21:48:15.905Z,6.35
2023-03-16T21:50:44.093Z,6.36
2023-03-16T21:53:20.664Z,6.40
2023-03-16T21:55:49.717Z,6.39
2023-03-16T21:58:19.944Z,6.43
2023-03-16T22:00:47.439Z,6.39
2023-03-16T22:03:29.595Z,6.40
2023-03-16T22:06:00.382Z,6.45
2023-03-16T22:08:31.117Z,6.43
2023-03-16T22:10:58.997Z,6.44
2023-03-16T22:13:29.326Z,6.49
2023-03-16T22:15:58.519Z,6.41
2023-03-16T22:18:28.852Z,6.36
2023-03-16T22:20:57.052Z,6.33
2023-03-16T22:23:30.907Z,6.32
2023-03-16T22:25:58.016Z,6.30
2023-03-16T22:28:25.636Z,6.33
2023-03-16T22:30:53.459Z,6.34
2023-03-16T22:33:24.751Z,6.26
2023-03-16T22:35:52.634Z,6.24
2023-03-16T22:38:19.716Z,6.25
2023-03-16T22:40:48.055Z,6.27
2023-03-16T22:43:19.702Z,6.26
2023-03-16T22:45:48.652Z,6.27
2023-03-16T22:48:19.815Z,6.29
2023-03-16T22:50:47.683Z,6.30
2023-03-16T22:53:20.620Z,6.33
2023-03-16T22:55:51.326Z,6.35
2023-03-16T22:58:30.904Z,6.29
2023-03-16T23:00:58.157Z,6.30
2023-03-16T23:03:25.389Z,6.25
2023-03-16T23:05:52.385Z,6.18
2023-03-16T23:08:21.246Z,6.13
2023-03-16T23:10:51.192Z,6.10
2023-03-16T23:13:20.940Z,6.14
2023-03-16T23:15:49.988Z,6.03
2023-03-16T23:18:18.839Z,5.99
2023-03-16T23:20:47.040Z,5.97
2023-03-16T23:23:14.270Z,5.99
2023-03-16T23:25:42.263Z,6.07
2023-03-16T23:28:15.452Z,6.06
2023-03-16T23:30:42.786Z,6.08
2023-03-16T23:33:11.689Z,6.12
2023-03-16T23:35:39.171Z,6.20
2023-03-16T23:38:06.302Z,6.21
2023-03-16T23:40:38.358Z,6.21
2023-03-16T23:43:05.837Z,6.21
2023-03-16T23:45:38.574Z,6.21
2023-03-16T23:48:08.092Z,6.22
2023-03-16T23:50:36.744Z,6.26
2023-03-16T23:53:03.775Z,6.27
2023-03-16T23:55:31.017Z,6.28
2023-03-16T23:57:58.035Z,6.33
